createdAt,value
2017-06-25T00:00:38.009Z,0
2017-06-25T00:01:18.490Z,0
2017-06-25T00:01:58.974Z,0
2017-06-25T00:02:39.481Z,0
2017-06-25T00:03:19.964Z,0
2017-06-25T00:04:00.455Z,0
2017-06-25T00:04:40.955Z,0
2017-06-25T00:05:21.451Z,0
2017-06-25T00:06:01.927Z,0
2017-06-25T00:08:14.648Z,0
2017-06-25T00:08:55.151Z,0
2017-06-25T00:09:35.644Z,0
2017-06-25T00:10:16.164Z,0
2017-06-25T00:10:56.615Z,0
2017-06-25T00:11:37.108Z,0
2017-06-25T00:12:17.597Z,0
2017-06-25T00:12:58.089Z,0
2017-06-25T00:13:38.597Z,0
2017-06-25T00:14:19.069Z,0
2017-06-25T00:14:59.559Z,0
2017-06-25T00:15:40.047Z,0
2017-06-25T00:16:20.543Z,0
2017-06-25T00:17:01.046Z,0
2017-06-25T00:17:41.540Z,0
2017-06-25T00:18:22.036Z,0
2017-06-25T00:19:02.520Z,0
2017-06-25T00:19:43.040Z,0
2017-06-25T00:20:23.536Z,0
2017-06-25T00:21:04.044Z,0
2017-06-25T00:21:44.524Z,0
2017-06-25T00:22:25.011Z,0
2017-06-25T00:23:05.505Z,0
2017-06-25T00:23:46.056Z,0
2017-06-25T00:24:26.487Z,0
2017-06-25T00:25:06.992Z,0
2017-06-25T00:25:47.478Z,0
2017-06-25T00:26:27.962Z,0
2017-06-25T00:27:08.447Z,0
2017-06-25T00:27:48.947Z,0
2017-06-25T00:28:29.442Z,0
2017-06-25T00:29:09.947Z,0
2017-06-25T00:29:50.434Z,0
2017-06-25T00:30:30.932Z,0
2017-06-25T00:31:11.441Z,0
2017-06-25T00:31:51.938Z,0
2017-06-25T00:32:32.432Z,0
2017-06-25T00:33:12.930Z,0
2017-06-25T00:33:53.417Z,0
2017-06-25T00:34:33.916Z,0
2017-06-25T00:35:14.411Z,0
2017-06-25T00:35:54.898Z,0
2017-06-25T00:36:35.389Z,0
2017-06-25T00:37:15.878Z,0
2017-06-25T00:37:56.369Z,0
2017-06-25T00:38:36.866Z,0
2017-06-25T00:39:17.366Z,0
2017-06-25T00:39:57.851Z,0
2017-06-25T00:40:38.346Z,0
2017-06-25T00:41:18.845Z,0
2017-06-25T00:41:59.335Z,0
2017-06-25T00:42:39.827Z,0
2017-06-25T00:43:20.315Z,0
2017-06-25T00:44:00.809Z,0
2017-06-25T00:44:41.306Z,0
2017-06-25T00:45:21.791Z,0
2017-06-25T00:46:02.263Z,0
2017-06-25T00:46:42.736Z,0
2017-06-25T00:47:23.224Z,0
2017-06-25T00:48:03.724Z,0
2017-06-25T00:48:44.210Z,0
2017-06-25T00:49:24.704Z,0
2017-06-25T00:50:05.202Z,0
2017-06-25T00:50:45.690Z,0
2017-06-25T00:51:26.193Z,0
2017-06-25T00:52:06.679Z,0
2017-06-25T00:52:47.170Z,0
2017-06-25T00:53:27.670Z,0
2017-06-25T00:54:08.147Z,0
2017-06-25T00:54:48.645Z,0
2017-06-25T00:55:29.141Z,0
2017-06-25T00:56:09.623Z,0
2017-06-25T00:56:50.121Z,0
2017-06-25T00:57:30.641Z,0
2017-06-25T00:58:11.102Z,0
2017-06-25T00:58:51.600Z,0
2017-06-25T00:59:32.089Z,0
2017-06-25T01:00:12.594Z,0
2017-06-25T01:00:53.075Z,0
2017-06-25T01:01:33.562Z,0
2017-06-25T01:02:14.058Z,0
2017-06-25T01:02:54.536Z,0
2017-06-25T01:03:35.042Z,0
2017-06-25T01:04:15.536Z,0
2017-06-25T01:04:56.025Z,0
2017-06-25T01:05:36.527Z,0
2017-06-25T01:06:17.015Z,0
2017-06-25T01:06:57.503Z,0
2017-06-25T01:07:38.004Z,0
2017-06-25T01:08:18.495Z,0
2017-06-25T01:08:58.989Z,0
2017-06-25T01:09:39.512Z,0
2017-06-25T01:10:20.000Z,0
2017-06-25T01:11:00.472Z,0
2017-06-25T01:11:40.983Z,0
2017-06-25T01:12:21.477Z,0
2017-06-25T01:13:01.962Z,0
2017-06-25T01:13:42.462Z,0
2017-06-25T01:14:22.953Z,0
2017-06-25T01:15:03.450Z,0
2017-06-25T01:15:43.951Z,0
2017-06-25T01:16:24.441Z,0
2017-06-25T01:17:04.956Z,0
2017-06-25T01:17:45.453Z,0
2017-06-25T01:18:25.946Z,0
2017-06-25T01:19:06.446Z,0
2017-06-25T01:19:46.921Z,0
2017-06-25T01:20:27.409Z,0
2017-06-25T01:21:07.910Z,0
2017-06-25T01:21:48.404Z,0
2017-06-25T01:22:28.920Z,0
2017-06-25T01:23:09.408Z,0
2017-06-25T01:23:49.905Z,0
2017-06-25T01:24:30.404Z,0
2017-06-25T01:25:10.918Z,0
2017-06-25T01:25:51.395Z,0
2017-06-25T01:26:31.890Z,0
2017-06-25T01:27:12.378Z,0
2017-06-25T01:27:52.878Z,0
2017-06-25T01:28:33.366Z,0
2017-06-25T01:29:13.857Z,0
2017-06-25T01:29:54.354Z,0
2017-06-25T01:30:34.858Z,0
2017-06-25T01:31:15.344Z,0
2017-06-25T01:31:55.910Z,0
2017-06-25T01:32:36.422Z,0
2017-06-25T01:33:16.910Z,0
2017-06-25T01:33:57.405Z,0
2017-06-25T01:34:37.894Z,0
2017-06-25T01:35:18.389Z,0
2017-06-25T01:35:58.881Z,0
2017-06-25T01:36:39.376Z,0
2017-06-25T01:37:19.880Z,0
2017-06-25T01:38:00.373Z,0
2017-06-25T01:38:40.861Z,0
2017-06-25T01:39:21.364Z,0
2017-06-25T01:40:01.865Z,0
2017-06-25T01:40:42.362Z,0
2017-06-25T01:41:22.859Z,0
2017-06-25T01:42:03.388Z,0
2017-06-25T01:42:43.843Z,0
2017-06-25T01:43:24.343Z,0
2017-06-25T01:44:04.829Z,0
2017-06-25T01:44:45.304Z,0
2017-06-25T01:45:25.809Z,0
2017-06-25T01:46:06.294Z,0
2017-06-25T01:46:46.795Z,0
2017-06-25T01:47:27.281Z,0
2017-06-25T01:48:07.794Z,0
2017-06-25T01:48:48.291Z,0
2017-06-25T01:49:28.793Z,0
2017-06-25T01:50:09.278Z,0
2017-06-25T01:50:49.767Z,0
2017-06-25T01:51:30.269Z,0
2017-06-25T01:52:10.763Z,0
2017-06-25T01:52:51.266Z,0
2017-06-25T01:53:31.753Z,0
2017-06-25T01:54:12.242Z,0
2017-06-25T01:54:52.742Z,0
2017-06-25T01:55:33.227Z,0
2017-06-25T01:56:13.722Z,0
2017-06-25T01:56:54.220Z,0
2017-06-25T01:57:34.708Z,0
2017-06-25T01:58:15.195Z,0
2017-06-25T01:58:55.689Z,0
2017-06-25T01:59:36.179Z,0
2017-06-25T02:00:16.661Z,0
2017-06-25T02:00:57.164Z,0
2017-06-25T02:01:37.659Z,0
2017-06-25T02:02:18.151Z,0
2017-06-25T02:02:58.643Z,0
2017-06-25T02:03:39.135Z,0
2017-06-25T02:04:19.627Z,0
2017-06-25T02:05:00.115Z,0
2017-06-25T02:05:40.614Z,0
2017-06-25T02:06:21.103Z,0
2017-06-25T02:07:01.600Z,0
2017-06-25T02:07:42.088Z,0
2017-06-25T02:08:22.580Z,0
2017-06-25T02:09:03.075Z,0
2017-06-25T02:09:43.573Z,0
2017-06-25T02:10:24.069Z,0
2017-06-25T02:11:04.580Z,0
2017-06-25T02:11:45.077Z,0
2017-06-25T02:12:25.576Z,0
2017-06-25T02:13:06.074Z,0
2017-06-25T02:13:46.567Z,0
2017-06-25T02:14:27.066Z,0
2017-06-25T02:15:07.552Z,0
2017-06-25T02:15:48.047Z,0
2017-06-25T02:16:28.553Z,0
2017-06-25T02:17:09.048Z,0
2017-06-25T02:17:49.536Z,0
2017-06-25T02:18:30.038Z,0
2017-06-25T02:19:10.523Z,0
2017-06-25T02:19:51.019Z,0
2017-06-25T02:20:31.505Z,0
2017-06-25T02:21:12.023Z,0
2017-06-25T02:21:52.509Z,0
2017-06-25T02:22:32.987Z,0
2017-06-25T02:23:13.484Z,0
2017-06-25T02:23:53.973Z,0
2017-06-25T02:24:34.468Z,0
2017-06-25T02:25:14.962Z,0
2017-06-25T02:25:55.450Z,0
2017-06-25T02:26:35.949Z,0
2017-06-25T02:27:16.444Z,0
2017-06-25T02:27:56.954Z,0
2017-06-25T02:28:37.449Z,0
2017-06-25T02:29:17.931Z,0
2017-06-25T02:29:58.435Z,0
2017-06-25T02:30:38.928Z,0
2017-06-25T02:31:19.424Z,0
2017-06-25T02:31:59.913Z,0
2017-06-25T02:32:40.406Z,0
2017-06-25T02:33:20.903Z,0
2017-06-25T02:34:01.402Z,0
2017-06-25T02:34:41.897Z,0
2017-06-25T02:35:22.387Z,0
2017-06-25T02:36:02.876Z,0
2017-06-25T02:36:43.418Z,0
2017-06-25T02:37:23.841Z,0
2017-06-25T02:38:04.343Z,0
2017-06-25T02:38:44.820Z,0
2017-06-25T02:39:25.313Z,0
2017-06-25T02:40:05.820Z,0
2017-06-25T02:40:46.313Z,0
2017-06-25T02:41:26.813Z,0
2017-06-25T02:42:07.300Z,0
2017-06-25T02:42:47.792Z,0
2017-06-25T02:43:28.286Z,0
2017-06-25T02:44:08.781Z,0
2017-06-25T02:44:49.262Z,0
2017-06-25T02:45:29.754Z,0
2017-06-25T02:46:10.268Z,0
2017-06-25T02:46:50.745Z,0
2017-06-25T02:47:31.260Z,0
2017-06-25T02:48:11.733Z,0
2017-06-25T02:48:52.221Z,0
2017-06-25T02:49:32.716Z,4
2017-06-25T02:50:13.216Z,4
2017-06-25T02:50:53.701Z,4
2017-06-25T02:51:34.189Z,4
2017-06-25T02:52:14.683Z,4
2017-06-25T02:52:55.189Z,0
2017-06-25T02:53:35.646Z,4
2017-06-25T02:54:16.159Z,4
2017-06-25T02:54:56.639Z,4
2017-06-25T02:55:37.131Z,4
2017-06-25T02:56:17.629Z,4
2017-06-25T02:56:58.119Z,8
2017-06-25T02:57:38.632Z,8
2017-06-25T02:58:19.115Z,8
2017-06-25T02:58:59.606Z,12
2017-06-25T02:59:40.110Z,12
2017-06-25T03:00:20.598Z,12
2017-06-25T03:01:01.088Z,12
2017-06-25T03:01:41.586Z,12
2017-06-25T03:02:22.073Z,16
2017-06-25T03:03:02.562Z,16
2017-06-25T03:03:43.049Z,20
2017-06-25T03:04:23.543Z,20
2017-06-25T03:05:04.036Z,24
2017-06-25T03:05:44.523Z,24
2017-06-25T03:06:25.026Z,28
2017-06-25T03:07:05.495Z,28
2017-06-25T03:07:45.986Z,32
2017-06-25T03:08:26.497Z,32
2017-06-25T03:09:06.995Z,36
2017-06-25T03:09:47.493Z,36
2017-06-25T03:10:27.980Z,40
2017-06-25T03:11:08.468Z,40
2017-06-25T03:11:48.967Z,44
2017-06-25T03:12:29.456Z,48
2017-06-25T03:13:09.953Z,48
2017-06-25T03:13:50.449Z,52
2017-06-25T03:14:30.933Z,56
2017-06-25T03:15:11.423Z,60
2017-06-25T03:15:51.910Z,60
2017-06-25T03:16:32.409Z,64
2017-06-25T03:17:12.901Z,64
2017-06-25T03:17:53.411Z,72
2017-06-25T03:18:33.895Z,76
2017-06-25T03:19:14.375Z,80
2017-06-25T03:19:54.877Z,88
2017-06-25T03:20:35.371Z,92
2017-06-25T03:21:15.856Z,100
2017-06-25T03:21:56.351Z,104
2017-06-25T03:22:36.838Z,104
2017-06-25T03:23:17.330Z,108
2017-06-25T03:23:57.827Z,116
2017-06-25T03:24:38.335Z,116
2017-06-25T03:25:18.807Z,120
2017-06-25T03:25:59.309Z,128
2017-06-25T03:28:17.152Z,132
2017-06-25T03:28:57.643Z,132
2017-06-25T03:29:38.152Z,140
2017-06-25T03:30:18.617Z,152
2017-06-25T03:30:59.110Z,156
2017-06-25T03:31:39.608Z,160
2017-06-25T03:32:20.094Z,164
2017-06-25T03:33:00.588Z,172
2017-06-25T03:33:41.080Z,180
2017-06-25T03:34:21.570Z,188
2017-06-25T03:35:02.083Z,196
2017-06-25T03:35:42.551Z,208
2017-06-25T03:36:23.039Z,212
2017-06-25T03:37:03.534Z,220
2017-06-25T03:37:44.022Z,228
2017-06-25T03:38:24.515Z,232
2017-06-25T03:39:05.000Z,244
2017-06-25T03:39:45.482Z,260
2017-06-25T03:40:25.969Z,272
2017-06-25T03:41:06.456Z,280
2017-06-25T03:41:46.960Z,292
2017-06-25T03:42:27.435Z,304
2017-06-25T03:43:07.933Z,316
2017-06-25T03:43:48.422Z,328
2017-06-25T03:44:28.916Z,340
2017-06-25T03:45:09.395Z,356
2017-06-25T03:45:49.907Z,364
2017-06-25T03:46:30.390Z,376
2017-06-25T03:47:10.869Z,392
2017-06-25T03:47:51.371Z,412
2017-06-25T03:48:31.869Z,436
2017-06-25T03:49:12.359Z,448
2017-06-25T03:49:52.863Z,444
2017-06-25T03:50:33.349Z,428
2017-06-25T03:51:13.837Z,424
2017-06-25T03:51:54.331Z,440
2017-06-25T03:52:34.829Z,464
2017-06-25T03:53:15.330Z,484
2017-06-25T03:53:55.780Z,512
2017-06-25T03:54:36.272Z,536
2017-06-25T03:55:16.758Z,560
2017-06-25T03:55:57.257Z,580
2017-06-25T03:56:37.749Z,596
2017-06-25T03:57:18.239Z,628
2017-06-25T03:57:58.715Z,680
2017-06-25T03:58:39.208Z,748
2017-06-25T03:59:19.712Z,808
2017-06-25T04:00:00.203Z,864
2017-06-25T04:00:40.699Z,928
2017-06-25T04:01:21.186Z,976
2017-06-25T04:02:01.677Z,1024
2017-06-25T04:02:42.163Z,1068
2017-06-25T04:03:23.220Z,1112
2017-06-25T04:04:03.710Z,1164
2017-06-25T04:04:44.210Z,1216
2017-06-25T04:05:24.704Z,1264
2017-06-25T04:06:05.201Z,1304
2017-06-25T04:06:45.695Z,1332
2017-06-25T04:07:26.197Z,1364
2017-06-25T04:08:06.687Z,1396
2017-06-25T04:08:47.183Z,1416
2017-06-25T04:09:27.673Z,1440
2017-06-25T04:10:08.169Z,1468
2017-06-25T04:10:48.660Z,1500
2017-06-25T04:11:29.149Z,1540
2017-06-25T04:12:09.641Z,1576
2017-06-25T04:12:50.137Z,1604
2017-06-25T04:13:30.637Z,1632
2017-06-25T04:14:11.124Z,1652
2017-06-25T04:14:51.614Z,1684
2017-06-25T04:15:32.104Z,1720
2017-06-25T04:16:12.619Z,1764
2017-06-25T04:16:53.091Z,1832
2017-06-25T04:17:33.584Z,1916
2017-06-25T04:18:14.077Z,1992
2017-06-25T04:18:54.583Z,2076
2017-06-25T04:19:35.043Z,2156
2017-06-25T04:20:15.546Z,2248
2017-06-25T04:20:56.043Z,2328
2017-06-25T04:21:36.540Z,2388
2017-06-25T04:22:17.028Z,2440
2017-06-25T04:22:57.522Z,2512
2017-06-25T04:23:38.027Z,2592
2017-06-25T04:24:18.508Z,2676
2017-06-25T04:24:58.999Z,2732
2017-06-25T04:25:39.521Z,2780
2017-06-25T04:26:19.986Z,2836
2017-06-25T04:27:00.466Z,2900
2017-06-25T04:27:40.946Z,2980
2017-06-25T04:28:21.436Z,3044
2017-06-25T04:29:01.942Z,3068
2017-06-25T04:29:42.439Z,3092
2017-06-25T04:30:22.942Z,3128
2017-06-25T04:31:03.434Z,3180
2017-06-25T04:31:43.917Z,3204
2017-06-25T04:32:24.416Z,3216
2017-06-25T04:33:04.909Z,3240
2017-06-25T04:33:45.402Z,3308
2017-06-25T04:34:25.908Z,3408
2017-06-25T04:35:06.416Z,3488
2017-06-25T04:35:46.908Z,3552
2017-06-25T04:36:27.403Z,3648
2017-06-25T04:37:07.904Z,3760
2017-06-25T04:37:48.389Z,3932
2017-06-25T04:38:28.882Z,4156
2017-06-25T04:39:09.383Z,4392
2017-06-25T04:39:49.870Z,4440
2017-06-25T04:40:30.346Z,4460
2017-06-25T04:41:10.847Z,4300
2017-06-25T04:41:51.343Z,4316
2017-06-25T04:42:31.833Z,4484
2017-06-25T04:43:12.339Z,4112
2017-06-25T04:43:52.828Z,3968
2017-06-25T04:44:33.368Z,3684
2017-06-25T04:45:13.823Z,3876
2017-06-25T04:45:54.299Z,3616
2017-06-25T04:46:34.790Z,3504
2017-06-25T04:47:15.282Z,3604
2017-06-25T04:47:55.777Z,3476
2017-06-25T04:48:36.266Z,3552
2017-06-25T04:49:16.767Z,3688
2017-06-25T04:49:57.253Z,3752
2017-06-25T04:50:37.747Z,3696
2017-06-25T04:51:18.241Z,3676
2017-06-25T04:51:58.733Z,3700
2017-06-25T04:52:39.218Z,3916
2017-06-25T04:53:19.701Z,4032
2017-06-25T04:54:00.200Z,4212
2017-06-25T04:54:40.698Z,4352
2017-06-25T04:55:21.217Z,4472
2017-06-25T04:56:01.737Z,4256
2017-06-25T04:56:42.202Z,4192
2017-06-25T04:57:22.700Z,4148
2017-06-25T04:58:03.203Z,4172
2017-06-25T04:58:43.681Z,4532
2017-06-25T04:59:24.184Z,4592
2017-06-25T05:00:04.672Z,4816
2017-06-25T05:00:45.183Z,4716
2017-06-25T05:01:25.661Z,4500
2017-06-25T05:02:06.154Z,4616
2017-06-25T05:02:46.646Z,4624
2017-06-25T05:03:27.146Z,4456
2017-06-25T05:04:07.627Z,4532
2017-06-25T05:04:48.126Z,4600
2017-06-25T05:05:28.615Z,4756
2017-06-25T05:06:09.102Z,4964
2017-06-25T05:06:49.601Z,5064
2017-06-25T05:07:30.089Z,5420
2017-06-25T05:08:10.582Z,5468
2017-06-25T05:08:51.075Z,5576
2017-06-25T05:09:31.559Z,5564
2017-06-25T05:10:12.056Z,5412
2017-06-25T05:10:52.547Z,5180
2017-06-25T05:11:33.045Z,4996
2017-06-25T05:12:13.529Z,4996
2017-06-25T05:12:54.029Z,5036
2017-06-25T05:13:34.511Z,5212
2017-06-25T05:14:15.010Z,5292
2017-06-25T05:14:55.511Z,5380
2017-06-25T05:15:36.005Z,5404
2017-06-25T05:16:16.486Z,5072
2017-06-25T05:16:56.979Z,5184
2017-06-25T05:17:37.479Z,5064
2017-06-25T05:18:17.952Z,5284
2017-06-25T05:18:58.451Z,5516
2017-06-25T05:19:38.950Z,5784
2017-06-25T05:20:19.441Z,5768
2017-06-25T05:20:59.940Z,6028
2017-06-25T05:21:40.426Z,6344
2017-06-25T05:22:20.915Z,6764
2017-06-25T05:23:01.410Z,6908
2017-06-25T05:23:41.905Z,6932
2017-06-25T05:24:22.393Z,7120
2017-06-25T05:25:02.902Z,7284
2017-06-25T05:25:43.380Z,7300
2017-06-25T05:26:23.871Z,7644
2017-06-25T05:27:04.408Z,7760
2017-06-25T05:27:44.854Z,7760
2017-06-25T05:28:25.353Z,8640
2017-06-25T05:29:05.851Z,9088
2017-06-25T05:29:46.338Z,9564
2017-06-25T05:30:26.827Z,9612
2017-06-25T05:31:07.327Z,10152
2017-06-25T05:31:47.812Z,10548
2017-06-25T05:32:28.300Z,11184
2017-06-25T05:33:08.802Z,11788
2017-06-25T05:33:49.285Z,11920
2017-06-25T05:34:29.778Z,11624
2017-06-25T05:35:10.285Z,11448
2017-06-25T05:35:50.762Z,11060
2017-06-25T05:36:31.256Z,10564
2017-06-25T05:37:11.760Z,10892
2017-06-25T05:37:52.263Z,9428
2017-06-25T05:38:32.757Z,7136
2017-06-25T05:39:13.261Z,8004
2017-06-25T05:39:53.751Z,8164
2017-06-25T05:40:34.254Z,5556
2017-06-25T05:41:14.744Z,5200
2017-06-25T05:41:55.226Z,4996
2017-06-25T05:42:35.722Z,4840
2017-06-25T05:43:16.224Z,4700
2017-06-25T05:43:56.722Z,4608
2017-06-25T05:44:37.234Z,5124
2017-06-25T05:45:17.729Z,4672
2017-06-25T05:45:58.222Z,4824
2017-06-25T05:46:38.724Z,5068
2017-06-25T05:47:19.225Z,5476
2017-06-25T05:47:59.728Z,5908
2017-06-25T05:48:40.220Z,5844
2017-06-25T05:49:20.722Z,5572
2017-06-25T05:50:01.205Z,5464
2017-06-25T05:50:41.696Z,5672
2017-06-25T05:51:22.195Z,6068
2017-06-25T05:52:02.679Z,6716
2017-06-25T05:52:43.173Z,9748
2017-06-25T05:53:23.670Z,11516
2017-06-25T05:54:04.158Z,11708
2017-06-25T05:54:44.653Z,14376
2017-06-25T05:55:25.145Z,14684
2017-06-25T05:56:05.636Z,14992
2017-06-25T05:56:46.128Z,11736
2017-06-25T05:57:26.631Z,13516
2017-06-25T05:58:07.118Z,14332
2017-06-25T05:58:47.607Z,14004
2017-06-25T05:59:28.099Z,13868
2017-06-25T06:00:08.605Z,13944
2017-06-25T06:00:49.100Z,14012
2017-06-25T06:01:29.597Z,14268
2017-06-25T06:02:10.090Z,14376
2017-06-25T06:02:50.569Z,14592
2017-06-25T06:03:31.068Z,14732
2017-06-25T06:04:11.548Z,15040
2017-06-25T06:04:52.038Z,15380
2017-06-25T06:05:32.541Z,15764
2017-06-25T06:06:13.034Z,16032
2017-06-25T06:06:53.526Z,16512
2017-06-25T06:07:34.031Z,16672
2017-06-25T06:08:14.517Z,16736
2017-06-25T06:08:55.024Z,16800
2017-06-25T06:09:35.541Z,16992
2017-06-25T06:10:16.014Z,17056
2017-06-25T06:10:56.482Z,17152
2017-06-25T06:11:36.933Z,17312
2017-06-25T06:12:17.418Z,17472
2017-06-25T06:12:57.921Z,17696
2017-06-25T06:13:38.411Z,17920
2017-06-25T06:14:18.912Z,18176
2017-06-25T06:14:59.410Z,18400
2017-06-25T06:15:39.915Z,18784
2017-06-25T06:16:20.408Z,19040
2017-06-25T06:17:00.908Z,19200
2017-06-25T06:17:41.407Z,19488
2017-06-25T06:18:21.918Z,19776
2017-06-25T06:19:02.413Z,20288
2017-06-25T06:19:42.917Z,20736
2017-06-25T06:20:23.414Z,21376
2017-06-25T06:21:03.917Z,20320
2017-06-25T06:21:44.413Z,22848
2017-06-25T06:22:24.914Z,23744
2017-06-25T06:23:05.405Z,24576
2017-06-25T06:23:45.897Z,25120
2017-06-25T06:24:26.415Z,25344
2017-06-25T06:25:06.899Z,19136
2017-06-25T06:25:47.412Z,19552
2017-06-25T06:26:27.894Z,15288
2017-06-25T06:27:08.386Z,16832
2017-06-25T06:27:48.878Z,24960
2017-06-25T06:28:29.374Z,13660
2017-06-25T06:29:09.861Z,20608
2017-06-25T06:29:50.366Z,17632
2017-06-25T06:30:30.860Z,19360
2017-06-25T06:31:11.347Z,26560
2017-06-25T06:31:51.868Z,27488
2017-06-25T06:32:32.360Z,28448
2017-06-25T06:33:12.875Z,29216
2017-06-25T06:33:53.373Z,29600
2017-06-25T06:34:33.890Z,29888
2017-06-25T06:35:14.387Z,30784
2017-06-25T06:35:54.888Z,31648
2017-06-25T06:36:35.387Z,32320
2017-06-25T06:37:15.875Z,32768
2017-06-25T06:37:56.385Z,32960
2017-06-25T06:38:36.888Z,33472
2017-06-25T06:39:17.392Z,34304
2017-06-25T06:39:57.912Z,35840
2017-06-25T06:40:38.416Z,36256
2017-06-25T06:41:18.913Z,34880
2017-06-25T06:41:59.432Z,27200
2017-06-25T06:42:39.927Z,19840
2017-06-25T06:43:20.418Z,44672
2017-06-25T06:44:00.931Z,19968
2017-06-25T06:44:41.435Z,70784
2017-06-25T06:45:21.935Z,13420
2017-06-25T06:46:02.433Z,17696
2017-06-25T06:46:42.934Z,11932
2017-06-25T06:47:23.429Z,11764
2017-06-25T06:48:03.927Z,11788
2017-06-25T06:48:44.447Z,13328
2017-06-25T06:49:24.942Z,56960
2017-06-25T06:50:05.442Z,58016
2017-06-25T06:50:45.937Z,33376
2017-06-25T06:51:26.420Z,51904
2017-06-25T06:52:06.925Z,56320
2017-06-25T06:52:47.426Z,56672
2017-06-25T06:53:27.924Z,58144
2017-06-25T06:54:08.419Z,25920
2017-06-25T06:54:48.915Z,53856
2017-06-25T06:55:29.411Z,19904
2017-06-25T06:56:09.918Z,18784
2017-06-25T06:56:50.424Z,26144
2017-06-25T06:57:30.920Z,17440
2017-06-25T06:58:11.407Z,16268
2017-06-25T06:58:51.913Z,16264
2017-06-25T06:59:32.402Z,15212
2017-06-25T07:00:12.895Z,14412
2017-06-25T07:00:53.388Z,13580
2017-06-25T07:01:33.881Z,12528
2017-06-25T07:02:14.366Z,11976
2017-06-25T07:02:54.883Z,11340
2017-06-25T07:03:35.380Z,10528
2017-06-25T07:04:15.882Z,9920
2017-06-25T07:04:56.375Z,9736
2017-06-25T07:05:36.864Z,9688
2017-06-25T07:06:17.360Z,9636
2017-06-25T07:06:57.859Z,9716
2017-06-25T07:07:38.361Z,10060
2017-06-25T07:08:18.872Z,10648
2017-06-25T07:08:59.366Z,12212
2017-06-25T07:09:39.875Z,13956
2017-06-25T07:10:20.370Z,15164
2017-06-25T07:11:00.878Z,15836
2017-06-25T07:11:41.369Z,16124
2017-06-25T07:12:21.861Z,28352
2017-06-25T07:13:02.377Z,62176
2017-06-25T07:13:42.868Z,16388
2017-06-25T07:14:23.372Z,14188
2017-06-25T07:15:03.894Z,14136
2017-06-25T07:15:44.412Z,14496
2017-06-25T07:16:24.910Z,15204
2017-06-25T07:17:05.410Z,16636
2017-06-25T07:17:45.908Z,18528
2017-06-25T07:18:26.376Z,22112
2017-06-25T07:19:06.874Z,28640
2017-06-25T07:19:47.370Z,37824
2017-06-25T07:20:27.871Z,33152
2017-06-25T07:21:08.386Z,33376
2017-06-25T07:21:48.880Z,64960
2017-06-25T07:22:29.383Z,49216
2017-06-25T07:23:09.871Z,68704
2017-06-25T07:23:50.360Z,49728
2017-06-25T07:26:03.086Z,60416
2017-06-25T07:26:43.580Z,45024
2017-06-25T07:27:24.081Z,62368
2017-06-25T07:28:04.576Z,55712
2017-06-25T07:28:45.092Z,43040
2017-06-25T07:29:25.574Z,38048
2017-06-25T07:30:06.075Z,28992
2017-06-25T07:30:46.578Z,21344
2017-06-25T07:31:27.071Z,17664
2017-06-25T07:32:07.567Z,16584
2017-06-25T07:32:48.061Z,16184
2017-06-25T07:33:28.553Z,15760
2017-06-25T07:34:09.086Z,15648
2017-06-25T07:34:49.576Z,15684
2017-06-25T07:35:30.067Z,15364
2017-06-25T07:36:10.566Z,15424
2017-06-25T07:36:51.093Z,15280
2017-06-25T07:37:31.539Z,14904
2017-06-25T07:39:44.288Z,14852
2017-06-25T07:40:24.801Z,14464
2017-06-25T07:41:05.264Z,14852
2017-06-25T07:41:45.760Z,14532
2017-06-25T07:42:26.260Z,14328
2017-06-25T07:43:06.745Z,14180
2017-06-25T07:43:47.239Z,14304
2017-06-25T07:44:27.741Z,13944
2017-06-25T07:45:08.252Z,13904
2017-06-25T07:45:48.724Z,13880
2017-06-25T07:46:29.259Z,13832
2017-06-25T07:47:09.696Z,13748
2017-06-25T07:47:50.200Z,13720
2017-06-25T07:48:30.691Z,13632
2017-06-25T07:49:11.186Z,13648
2017-06-25T07:49:51.698Z,13624
2017-06-25T07:50:32.197Z,13612
2017-06-25T07:51:12.696Z,13616
2017-06-25T07:51:53.232Z,13496
2017-06-25T07:52:33.675Z,13552
2017-06-25T07:53:14.174Z,13684
2017-06-25T07:53:54.660Z,13820
2017-06-25T07:54:35.156Z,13832
2017-06-25T07:55:15.650Z,13856
2017-06-25T07:55:56.151Z,13928
2017-06-25T07:56:36.655Z,14016
2017-06-25T07:57:17.167Z,14108
2017-06-25T07:57:57.643Z,14156
2017-06-25T07:58:38.145Z,14208
2017-06-25T07:59:18.640Z,14328
2017-06-25T07:59:59.140Z,14356
2017-06-25T08:00:39.644Z,14356
2017-06-25T08:01:20.143Z,14352
2017-06-25T08:02:00.641Z,14356
2017-06-25T08:02:41.136Z,14324
2017-06-25T08:03:21.635Z,14440
2017-06-25T08:04:02.141Z,14568
2017-06-25T08:04:42.639Z,14672
2017-06-25T08:05:23.152Z,14684
2017-06-25T08:06:03.635Z,14828
2017-06-25T08:06:44.149Z,14972
2017-06-25T08:07:24.634Z,15204
2017-06-25T08:08:05.128Z,15556
2017-06-25T08:08:45.632Z,16024
2017-06-25T08:09:26.118Z,16728
2017-06-25T08:10:07.187Z,18560
2017-06-25T08:10:47.695Z,23040
2017-06-25T08:11:28.191Z,31488
2017-06-25T08:12:08.699Z,40768
2017-06-25T08:12:49.184Z,51712
2017-06-25T08:13:29.693Z,63360
2017-06-25T08:14:10.192Z,72992
2017-06-25T08:14:50.699Z,80160
2017-06-25T08:15:31.192Z,82624
2017-06-25T08:16:11.696Z,82016
2017-06-25T08:16:52.196Z,77888
2017-06-25T08:17:32.714Z,70144
2017-06-25T08:18:13.204Z,53600
2017-06-25T08:18:53.699Z,35072
2017-06-25T08:19:34.194Z,23648
2017-06-25T08:20:14.693Z,16744
2017-06-25T08:20:55.197Z,20032
2017-06-25T08:21:35.718Z,19392
2017-06-25T08:22:16.222Z,18464
2017-06-25T08:22:56.718Z,18144
2017-06-25T08:23:37.192Z,18400
2017-06-25T08:24:17.703Z,18528
2017-06-25T08:24:58.192Z,18752
2017-06-25T08:25:38.679Z,18816
2017-06-25T08:26:19.180Z,18912
2017-06-25T08:26:59.683Z,19072
2017-06-25T08:27:40.180Z,19744
2017-06-25T08:28:20.685Z,20128
2017-06-25T08:29:01.176Z,21504
2017-06-25T08:29:42.372Z,35744
2017-06-25T08:30:22.877Z,48512
2017-06-25T08:31:03.372Z,57280
2017-06-25T08:31:43.879Z,91008
2017-06-25T08:32:24.364Z,49440
2017-06-25T08:33:04.848Z,44416
2017-06-25T08:33:45.349Z,34528
2017-06-25T08:34:25.850Z,27200
2017-06-25T08:35:06.344Z,21536
2017-06-25T08:35:46.851Z,27872
2017-06-25T08:36:27.344Z,32864
2017-06-25T08:37:07.842Z,24864
2017-06-25T08:37:48.344Z,45408
2017-06-25T08:38:28.836Z,67840
2017-06-25T08:39:09.348Z,84320
2017-06-25T08:39:49.844Z,68704
2017-06-25T08:40:30.346Z,92224
2017-06-25T08:41:10.835Z,89344
2017-06-25T08:41:51.328Z,89920
2017-06-25T08:42:31.822Z,86912
2017-06-25T08:43:12.316Z,84192
2017-06-25T08:43:52.791Z,83904
2017-06-25T08:44:33.301Z,88064
2017-06-25T08:45:13.793Z,87648
2017-06-25T08:45:54.283Z,91200
2017-06-25T08:46:34.808Z,97792
2017-06-25T08:47:15.304Z,102016
2017-06-25T08:47:55.760Z,100256
2017-06-25T08:48:36.209Z,104192
2017-06-25T08:49:16.709Z,114656
2017-06-25T08:49:57.190Z,100768
2017-06-25T08:50:37.685Z,65888
2017-06-25T08:51:18.189Z,38272
2017-06-25T08:51:58.678Z,31296
2017-06-25T08:52:39.163Z,30240
2017-06-25T08:53:19.622Z,29536
2017-06-25T08:54:00.096Z,28832
2017-06-25T08:54:40.603Z,28096
2017-06-25T08:55:21.097Z,28288
2017-06-25T08:56:01.574Z,28512
2017-06-25T08:56:42.086Z,29312
2017-06-25T08:57:22.571Z,30496
2017-06-25T08:58:03.080Z,31712
2017-06-25T08:58:43.571Z,33344
2017-06-25T08:59:24.159Z,35232
2017-06-25T09:00:04.680Z,38048
2017-06-25T09:00:45.242Z,38144
2017-06-25T09:01:25.736Z,10020
2017-06-25T09:02:06.235Z,9124
2017-06-25T09:02:46.784Z,49024
2017-06-25T09:03:27.289Z,16196
2017-06-25T09:04:07.783Z,108992
2017-06-25T09:04:48.294Z,121024
2017-06-25T09:05:28.791Z,12136
2017-06-25T09:06:09.293Z,139488
2017-06-25T09:06:49.775Z,130208
2017-06-25T09:07:30.266Z,126144
2017-06-25T09:08:10.765Z,123392
2017-06-25T09:08:51.263Z,116064
2017-06-25T09:09:31.755Z,105824
2017-06-25T09:10:12.266Z,17680
2017-06-25T09:10:52.760Z,90208
2017-06-25T09:11:33.257Z,50016
2017-06-25T09:12:13.754Z,103264
2017-06-25T09:12:54.259Z,121952
2017-06-25T09:13:34.759Z,118240
2017-06-25T09:14:15.258Z,118848
2017-06-25T09:14:55.765Z,67744
2017-06-25T09:15:36.262Z,116896
2017-06-25T09:16:16.756Z,114432
2017-06-25T09:16:57.263Z,112768
2017-06-25T09:17:37.755Z,114528
2017-06-25T09:18:18.259Z,114240